• Join FlightAware (Why Join?)
  • Login
  • US Flag 
09:33PM EDT


 

Airport Tracker/Info


-or-


 

Live Flight TrackerFlight Track Log ✈ AWE997 ✈ 19-Apr-2013 ✈ KORD - KPHL

Flight Track Log - Related Links

Times and Time Zones

All times are in EDT time to prevent confusion due to time zone crossing. See the AWE997 flight status page for this flight to view local times or setup timezone preferences in your user account.

Time Position Orientation Groundspeed Altitude Reporting Facility
EDT Latitude Longitude Course Direction KTS MPH feet Rate Location/Type
11:16AM 42.0000 -87.9333 90° East 157 181 1,800  Level Chicago TRACON
11:17AM 42.0828 -87.8603 33° Northeast 242 278 4,900 1,560 Climbing Chicago Center
11:18AM 41.9541 -87.4114 97° East  Level FlightAware Approximate
11:18AM 42.1164 -87.7667 64° Northeast 290 334 6,200  Level Chicago Center
11:19AM 41.9417 -87.2492 95° East  Level FlightAware Approximate
11:19AM 42.1214 -87.6472 87° East 316 364 8,800  Level Chicago Center
11:20AM 41.9333 -87.0866 90° East  Level FlightAware Approximate
11:20AM 42.0883 -87.5378 112° Southeast 316 364 11,500  Level Chicago Center
11:21AM 41.9333 -86.9234 90° East  Level FlightAware Approximate
11:21AM 42.0539 -87.4217 112° Southeast 331 381 13,800  Level Chicago Center
11:22AM 42.0075 -87.2742 113° Southeast 357 411 15,200 1,560 Climbing Chicago Center
11:24AM 41.9389 -87.1594 129° Southeast 388 447 17,000 1,980 Climbing Chicago Center
11:25AM 41.8692 -87.0411 128° Southeast 400 460 19,400 2,160 Climbing Chicago Center
11:26AM 41.8208 -86.9053 115° Southeast 419 482 21,600 1,740 Climbing Chicago Center
11:27AM 41.8183 -86.7339 91° East 456 525 23,000 1,380 Climbing Chicago Center
11:28AM 41.8169 -86.5417 90° East 463 533 24,500 1,260 Climbing Chicago Center
11:29AM 41.8144 -86.3628 91° East 477 549 25,700 1,200 Climbing Chicago Center
11:30AM 41.8128 -86.1825 91° East 484 557 27,000 1,020 Climbing Chicago Center
11:31AM 41.8103 -85.9989 91° East 491 565 27,900 900 Climbing Chicago Center
11:32AM 41.8078 -85.8125 91° East 498 573 28,900 1,440 Climbing Chicago Center
11:33AM 41.8047 -85.6242 91° East 502 578 30,900 1,560 Climbing Chicago Center
11:34AM 41.8014 -85.4478 91° East 470 541 32,200 1,260 Climbing Chicago Center
11:35AM 41.7986 -85.2697 91° East 470 541 33,600 960 Climbing Chicago Center
11:36AM 41.7942 -85.0625 92° East 462 532 34,200 540 Climbing Chicago Center
11:37AM 41.7900 -84.8875 92° East 465 535 34,800 360 Climbing Chicago Center
11:38AM 41.7856 -84.7094 92° East 475 547 35,000 540 Climbing Chicago Center
11:39AM 41.7819 -84.5181 91° East 471 542 36,000 660 Climbing Cleveland Center
11:40AM 41.7775 -84.3425 92° East 476 548 36,400 360 Climbing Cleveland Center
11:41AM 41.7747 -84.1614 91° East 486 559 36,800 300 Climbing Cleveland Center
11:42AM 41.7742 -83.9775 90° East 486 559 37,000 60 Climbing Cleveland Center
11:43AM 41.7711 -83.7933 91° East 486 559 37,000  Level Cleveland Center
11:44AM 41.7658 -83.6094 92° East 493 567 37,000  Level Cleveland Center
11:45AM 41.7322 -83.4492 106° East 462 532 37,000  Level Cleveland Center
11:46AM 41.6861 -83.2969 112° Southeast 451 519 37,000  Level Cleveland Center
11:47AM 41.6436 -83.1394 110° East 451 519 37,000  Level Cleveland Center
11:48AM 41.6011 -82.9850 110° East 446 513 37,000  Level Cleveland Center
11:49AM 41.5564 -82.8308 111° Southeast 441 507 37,000  Level Cleveland Center
11:50AM 41.5114 -82.6767 111° Southeast 448 516 37,100  Climbing Cleveland Center
11:51AM 41.4661 -82.5200 111° Southeast 443 510 37,000 -60 Descending Cleveland Center
11:52AM 41.4228 -82.3692 111° Southeast 443 510 37,000 -60 Level Cleveland Center
11:53AM 41.3753 -82.2075 111° Southeast 438 504 36,900 -60 Descending Cleveland Center
11:54AM 41.3292 -82.0542 112° Southeast 438 504 36,900  Level Cleveland Center
11:55AM 41.2833 -81.9011 112° Southeast 438 504 37,000  Climbing Cleveland Center
11:56AM 41.2389 -81.7483 111° Southeast 443 510 37,000  Level Cleveland Center
11:57AM 41.1967 -81.6097 112° Southeast 443 510 37,000  Level Cleveland Center
11:58AM 41.1500 -81.4544 112° Southeast 453 521 37,000  Level Cleveland Center
11:59AM 41.1031 -81.3022 112° Southeast 448 516 37,000  Level Cleveland Center
12:00PM 41.0558 -81.1475 112° Southeast 448 516 37,000  Level Cleveland Center
12:01PM 41.0044 -80.9847 113° Southeast 448 516 37,000  Level Cleveland Center
12:02PM 40.9592 -80.8278 111° Southeast 448 516 37,000  Level Cleveland Center
12:03PM 40.9094 -80.6764 113° Southeast 448 516 37,000  Level Cleveland Center
12:04PM 40.8636 -80.5256 112° Southeast 448 516 37,000  Level Cleveland Center
12:05PM 40.8153 -80.3719 113° Southeast 448 516 37,000  Level Cleveland Center
12:06PM 40.7711 -80.2322 113° Southeast 436 502 37,000  Level Cleveland Center
12:07PM 40.7206 -80.0792 114° Southeast 436 502 37,000  Level Cleveland Center
12:08PM 40.6739 -79.9289 112° Southeast 436 502 37,000  Level Cleveland Center
12:09PM 40.6250 -79.7789 113° Southeast 436 502 37,000  Level Cleveland Center
12:10PM 40.5761 -79.6292 113° Southeast 436 502 37,000  Level Cleveland Center
12:11PM 40.5328 -79.4739 110° East 441 507 37,000  Level Cleveland Center
12:12PM 40.5083 -79.3078 101° East 451 519 37,000  Level Cleveland Center
12:13PM 40.4853 -79.1364 100° East 462 532 37,000 -540 Level Cleveland Center
12:15PM 40.3871 -78.9595 126° Southeast  Level FlightAware Approximate
12:16PM 40.4156 -78.6525 126° Southeast 467 537 35,000  Level Cleveland Center
12:17PM 40.3875 -78.4814 102° East 467 537 32,800 -2,580 Descending Cleveland Center
12:18PM 40.3656 -78.3103 100° East 467 537 29,900 -2,460 Descending Cleveland Center
12:20PM 40.3131 -77.9358 100° East 474 545 25,000 -1,560 Descending New York Center
12:21PM 40.3106 -77.7667 91° East 467 537 25,000  Level New York Center
12:22PM 40.3103 -77.5925 90° East 467 537 25,000  Level New York Center
12:23PM 40.3072 -77.4261 91° East 467 537 25,000 -780 Level New York Center
12:24PM 40.3019 -77.2594 92° East 462 532 23,500 -1,860 Descending New York Center
12:25PM 40.3003 -77.0986 91° East 456 525 21,300 -2,580 Descending New York Center
12:26PM 40.2697 -76.9300 103° East 442 509 18,300 -2,640 Descending New York Center
12:27PM 40.2372 -76.7883 107° East 427 491 16,000 -1,680 Descending New York Center
12:28PM 40.2044 -76.6550 108° East 403 464 15,000 -1,080 Descending New York Center
12:29PM 40.1769 -76.5331 106° East 392 451 13,900 -1,200 Descending New York Center
12:30PM 40.1425 -76.3836 107° East 392 451 12,700 -1,140 Descending New York Center
12:31PM 40.1306 -76.3369 108° East 385 443 12,400 -900 Descending FAA TRACON SMA TRACON (SMA)
12:31PM 40.1219 -76.2967 106° East 380 437 12,100 -900 Descending FAA TRACON SMA TRACON (SMA)
12:31PM 40.1178 -76.2547 97° East 380 437 11,800 -1,080 Descending FAA TRACON SMA TRACON (SMA)
12:32PM 40.1147 -76.2036 94° East 367 422 11,400 -1,080 Descending FAA TRACON SMA TRACON (SMA)
12:32PM 40.1114 -76.1639 96° East 360 414 11,100 -900 Descending FAA TRACON SMA TRACON (SMA)
12:32PM 40.1083 -76.1253 96° East 353 406 10,800 -900 Descending FAA TRACON SMA TRACON (SMA)
12:33PM 40.1056 -76.0783 94° East 341 392 10,500 -780 Descending FAA TRACON SMA TRACON (SMA)
12:33PM 40.1028 -76.0425 96° East 331 381 10,300 -480 Descending FAA TRACON SMA TRACON (SMA)
12:33PM 40.1006 -76.0003 94° East 319 367 10,200 -480 Descending FAA TRACON SMA TRACON (SMA)
12:34PM 40.0975 -75.9644 96° East 316 364 10,000 -600 Descending FAA TRACON SMA TRACON (SMA)
12:34PM 40.0950 -75.9286 95° East 318 366 9,800 -780 Descending FAA TRACON SMA TRACON (SMA)
12:34PM 40.0981 -75.8858 85° East 312 359 9,500 -1,080 Descending FAA TRACON SMA TRACON (SMA)
12:35PM 40.1044 -75.8503 77° East 313 360 9,100 -900 Descending FAA TRACON SMA TRACON (SMA)
12:35PM 40.1183 -75.7783 76° East 294 338 8,600 -840 Descending FAA TRACON SMA TRACON (SMA)
12:36PM 40.1217 -75.7472 82° East 279 321 8,300 -1,080 Descending FAA TRACON SMA TRACON (SMA)
12:36PM 40.1256 -75.7161 81° East 278 320 7,900 -1,200 Descending FAA TRACON SMA TRACON (SMA)
12:36PM 40.1289 -75.6864 82° East 274 315 7,500 -1,500 Descending FAA TRACON SMA TRACON (SMA)
12:37PM 40.1342 -75.6486 80° East 272 313 6,900 -1,500 Descending FAA TRACON SMA TRACON (SMA)
12:37PM 40.1383 -75.6186 80° East 272 313 6,500 -1,200 Descending FAA TRACON SMA TRACON (SMA)
12:37PM 40.1367 -75.5906 94° East 266 306 6,100 -780 Descending FAA TRACON SMA TRACON (SMA)
12:38PM 40.1247 -75.5597 117° Southeast 245 282 6,000 -180 Descending FAA TRACON SMA TRACON (SMA)
12:38PM 40.1153 -75.5353 117° Southeast 238 274 6,000  Level FAA TRACON SMA TRACON (SMA)
12:38PM 40.1053 -75.5128 120° Southeast 239 275 6,000  Level FAA TRACON SMA TRACON (SMA)
12:39PM 40.0936 -75.4842 118° Southeast 234 269 6,000  Level FAA TRACON SMA TRACON (SMA)
12:39PM 40.0842 -75.4614 118° Southeast 233 268 6,000  Level FAA TRACON SMA TRACON (SMA)
12:39PM 40.0744 -75.4386 119° Southeast 235 270 6,000  Level FAA TRACON SMA TRACON (SMA)
12:40PM 40.0567 -75.4175 138° Southeast 221 254 6,000  Level FAA TRACON SMA TRACON (SMA)
12:40PM 40.0400 -75.4128 168° South 201 231 6,000  Level FAA TRACON SMA TRACON (SMA)
12:40PM 40.0233 -75.4075 166° South 199 229 6,000  Level FAA TRACON SMA TRACON (SMA)
12:41PM 40.0019 -75.4008 167° South 205 236 6,000  Level FAA TRACON SMA TRACON (SMA)
12:41PM 39.9850 -75.3956 167° South 204 235 6,000  Level FAA TRACON SMA TRACON (SMA)
12:41PM 39.9681 -75.3903 167° South 203 234 6,000 -180 Level FAA TRACON SMA TRACON (SMA)
12:42PM 39.9475 -75.3847 168° South 198 228 5,900  Descending FAA TRACON SMA TRACON (SMA)
12:42PM 39.9347 -75.3936 208° Southwest 148 170 6,000 120 Climbing FAA TRACON SMA TRACON (SMA)
12:42PM 39.9294 -75.4092 246° West 157 181 6,000 -180 Level FAA TRACON SMA TRACON (SMA)
12:43PM 39.9247 -75.4292 253° West 149 171 5,900 -480 Descending FAA TRACON SMA TRACON (SMA)
12:43PM 39.9206 -75.4444 250° West 149 171 5,700 -900 Descending FAA TRACON SMA TRACON (SMA)
12:43PM 39.9175 -75.4597 255° West 146 168 5,300 -1,080 Descending FAA TRACON SMA TRACON (SMA)
12:44PM 39.9122 -75.4800 251° West 148 170 5,000 -420 Descending FAA TRACON SMA TRACON (SMA)
12:44PM 39.9086 -75.4958 253° West 148 170 5,000 -300 Level FAA TRACON SMA TRACON (SMA)
12:44PM 39.9039 -75.5158 253° West 149 171 4,800 -840 Descending FAA TRACON SMA TRACON (SMA)
12:45PM 39.9008 -75.5325 257° West 150 173 4,500 -1,140 Descending FAA TRACON SMA TRACON (SMA)
12:45PM 39.8975 -75.5486 255° West 151 174 4,100 -780 Descending FAA TRACON SMA TRACON (SMA)
12:45PM 39.8936 -75.5647 253° West 150 173 4,000 -180 Descending FAA TRACON SMA TRACON (SMA)
12:46PM 39.8881 -75.5800 245° Southwest 155 178 4,000  Level FAA TRACON SMA TRACON (SMA)
12:46PM 39.8808 -75.5992 244° Southwest 153 176 4,000  Level FAA TRACON SMA TRACON (SMA)
12:46PM 39.8753 -75.6133 243° Southwest 152 175 4,000  Level FAA TRACON SMA TRACON (SMA)
12:47PM 39.8622 -75.6164 190° South 157 181 4,000  Level FAA TRACON SMA TRACON (SMA)
12:47PM 39.8472 -75.6111 165° South 160 184 4,000  Level FAA TRACON SMA TRACON (SMA)
12:47PM 39.8344 -75.6036 156° South 156 180 4,000  Level FAA TRACON SMA TRACON (SMA)
12:48PM 39.8286 -75.5856 113° Southeast 190 219 4,000  Level FAA TRACON SMA TRACON (SMA)
12:48PM 39.8247 -75.5594 101° East 191 220 4,000  Level FAA TRACON SMA TRACON (SMA)
12:48PM 39.8225 -75.5381 98° East 192 221 4,000 -600 Level FAA TRACON SMA TRACON (SMA)
12:49PM 39.8183 -75.4900 96° East 206 237 3,400 -1,020 Descending FAA TRACON SMA TRACON (SMA)
12:49PM 39.8222 -75.4672 77° East 209 241 3,000 -1,080 Descending FAA TRACON SMA TRACON (SMA)
12:50PM 39.8267 -75.4450 75° East 207 238 2,700 -900 Descending FAA TRACON SMA TRACON (SMA)